createdAt,value
2022-11-28T00:00:07.081Z,46.83
2022-11-28T00:05:08.006Z,47.63
2022-11-28T00:10:02.127Z,47.08
2022-11-28T00:14:56.040Z,42.70
2022-11-28T00:19:50.658Z,44.97
2022-11-28T00:24:46.252Z,47.67
2022-11-28T00:29:40.328Z,44.57
2022-11-28T00:34:34.848Z,44.30
2022-11-28T00:39:29.760Z,48.67
2022-11-28T00:44:23.140Z,45.13
2022-11-28T00:49:16.530Z,47.37
2022-11-28T00:54:09.928Z,46.97
2022-11-28T00:59:05.169Z,49.70
2022-11-28T01:04:26.527Z,48.17
2022-11-28T01:14:22.439Z,49.90
2022-11-28T01:19:16.419Z,48.70
2022-11-28T01:24:10.324Z,47.30
2022-11-28T01:29:03.920Z,43.00
2022-11-28T01:33:59.783Z,46.63
2022-11-28T01:38:55.872Z,44.50
2022-11-28T01:44:07.393Z,41.83
2022-11-28T01:49:24.700Z,41.77
2022-11-28T01:54:20.166Z,41.83
2022-11-28T01:59:16.601Z,39.30
2022-11-28T02:04:14.803Z,39.07
2022-11-28T02:09:11.456Z,40.37
2022-11-28T02:14:15.848Z,39.50
2022-11-28T02:19:36.071Z,36.57
2022-11-28T02:24:56.188Z,32.87
2022-11-28T02:30:21.529Z,32.10
2022-11-28T02:35:23.042Z,29.27
2022-11-28T02:40:23.229Z,29.83
2022-11-28T02:45:28.159Z,30.70
2022-11-28T02:50:29.912Z,27.43
2022-11-28T02:55:23.734Z,26.80
2022-11-28T03:00:31.349Z,28.43
2022-11-28T03:05:31.575Z,23.13
2022-11-28T03:10:34.292Z,28.00
2022-11-28T03:15:38.369Z,23.33
2022-11-28T03:20:47.172Z,24.87
2022-11-28T03:25:51.095Z,22.67
2022-11-28T03:30:54.027Z,23.20
2022-11-28T03:35:55.458Z,22.67
2022-11-28T03:40:52.624Z,23.83
2022-11-28T03:45:58.394Z,25.43
2022-11-28T03:51:07.439Z,24.73
2022-11-28T03:56:10.792Z,23.30
2022-11-28T04:01:11.394Z,22.57
2022-11-28T04:11:08.938Z,22.63
2022-11-28T04:16:10.849Z,25.17
2022-11-28T04:21:14.362Z,24.13
2022-11-28T04:26:17.994Z,23.57
2022-11-28T04:31:12.462Z,24.37
2022-11-28T04:36:12.091Z,24.30
2022-11-28T04:41:13.309Z,24.47
2022-11-28T04:46:11.432Z,24.57
2022-11-28T04:51:17.577Z,24.93
2022-11-28T04:56:20.185Z,27.87
2022-11-28T05:01:20.767Z,29.17
2022-11-28T05:11:29.800Z,24.03
2022-11-28T05:16:24.155Z,26.60
2022-11-28T05:21:45.267Z,36.43
2022-11-28T05:26:51.510Z,33.23
2022-11-28T05:31:50.743Z,25.93
2022-11-28T05:36:47.988Z,29.53
2022-11-28T05:41:44.429Z,28.63
2022-11-28T05:46:38.033Z,37.20
2022-11-28T05:51:31.616Z,29.27
2022-11-28T05:56:26.640Z,23.57
2022-11-28T06:01:22.598Z,28.33
2022-11-28T06:06:17.844Z,37.27
2022-11-28T06:11:12.409Z,28.67
2022-11-28T06:16:11.717Z,28.93
2022-11-28T06:21:08.946Z,27.33
2022-11-28T06:26:06.989Z,28.33
2022-11-28T06:31:00.620Z,31.20
2022-11-28T06:36:00.453Z,27.93
2022-11-28T06:40:57.640Z,31.97
2022-11-28T06:45:50.865Z,24.37
2022-11-28T06:50:44.200Z,30.13
2022-11-28T06:55:38.975Z,29.33
2022-11-28T07:00:32.882Z,28.83
2022-11-28T07:05:27.881Z,33.90
2022-11-28T07:10:21.321Z,30.73
2022-11-28T07:15:16.109Z,27.90
2022-11-28T07:20:10.994Z,27.93
2022-11-28T07:25:06.749Z,26.50
2022-11-28T07:30:02.076Z,28.90
2022-11-28T07:34:56.694Z,29.57
2022-11-28T07:39:51.871Z,25.10
2022-11-28T07:44:45.325Z,27.88
2022-11-28T07:49:41.406Z,22.57
2022-11-28T07:54:36.443Z,29.80
2022-11-28T07:59:29.899Z,24.10
2022-11-28T08:04:23.228Z,28.87
2022-11-28T08:09:16.578Z,28.17
2022-11-28T08:14:11.643Z,28.88
2022-11-28T08:19:05.317Z,29.40
2022-11-28T08:24:00.947Z,28.00
2022-11-28T08:28:54.886Z,31.15
2022-11-28T08:33:51.185Z,30.73
2022-11-28T08:39:02.987Z,36.65
2022-11-28T08:43:59.549Z,31.95
2022-11-28T08:48:54.224Z,36.08
2022-11-28T08:53:49.407Z,35.88
2022-11-28T08:58:42.777Z,36.78
2022-11-28T09:03:35.997Z,35.90
2022-11-28T09:08:30.685Z,32.53
2022-11-28T09:13:24.108Z,34.65
2022-11-28T09:18:18.290Z,38.80
2022-11-28T09:23:11.880Z,38.15
2022-11-28T09:28:06.827Z,35.22
2022-11-28T09:33:00.283Z,37.78
2022-11-28T09:37:53.436Z,39.17
2022-11-28T09:42:47.206Z,40.20
2022-11-28T09:47:44.140Z,40.65
2022-11-28T09:52:44.458Z,37.72
2022-11-28T09:57:41.810Z,36.17
2022-11-28T10:02:44.032Z,38.65
2022-11-28T10:07:53.703Z,47.05
2022-11-28T10:12:58.025Z,45.75
2022-11-28T10:17:58.935Z,35.75
2022-11-28T10:22:58.509Z,36.47
2022-11-28T10:27:52.441Z,36.57
2022-11-28T10:32:53.456Z,39.90
2022-11-28T10:37:46.904Z,40.88
2022-11-28T10:42:46.530Z,33.17
2022-11-28T10:47:54.547Z,31.43
2022-11-28T10:52:53.826Z,33.65
2022-11-28T10:57:57.872Z,32.05
2022-11-28T11:02:52.590Z,32.33
2022-11-28T11:07:51.370Z,32.30
2022-11-28T11:12:45.603Z,32.95
2022-11-28T11:17:40.146Z,29.42
2022-11-28T11:22:33.713Z,30.85
2022-11-28T11:27:27.058Z,35.10
2022-11-28T11:32:24.878Z,34.22
2022-11-28T11:37:38.086Z,28.23
2022-11-28T11:42:32.642Z,31.98
2022-11-28T11:47:42.470Z,26.02
2022-11-28T11:52:37.034Z,34.20
2022-11-28T11:57:35.182Z,33.67
2022-11-28T12:02:35.393Z,26.75
2022-11-28T12:07:34.890Z,29.50
2022-11-28T12:12:30.953Z,33.35
2022-11-28T12:17:50.089Z,33.97
2022-11-28T12:22:57.253Z,34.30
2022-11-28T12:28:03.117Z,32.13
2022-11-28T12:33:12.897Z,33.47
2022-11-28T12:38:20.349Z,32.97
2022-11-28T12:43:29.365Z,30.85
2022-11-28T12:48:42.476Z,28.65
2022-11-28T12:54:00.436Z,30.35
2022-11-28T12:59:02.096Z,27.13
2022-11-28T13:04:06.533Z,28.02
2022-11-28T13:09:16.414Z,29.13
2022-11-28T13:14:21.519Z,28.40
2022-11-28T13:19:29.951Z,32.22
2022-11-28T13:24:31.388Z,29.65
2022-11-28T13:29:33.808Z,27.95
2022-11-28T13:34:27.941Z,28.63
2022-11-28T13:39:33.263Z,38.30
2022-11-28T13:44:36.696Z,43.78
2022-11-28T13:49:30.685Z,35.92
2022-11-28T13:54:48.879Z,38.95
2022-11-28T13:59:50.538Z,32.90
2022-11-28T14:04:45.609Z,35.40
2022-11-28T14:09:53.332Z,29.77
2022-11-28T14:15:09.993Z,26.27
2022-11-28T14:20:16.472Z,26.25
2022-11-28T14:25:18.171Z,24.55
2022-11-28T14:30:26.010Z,25.10
2022-11-28T14:35:57.885Z,28.85
2022-11-28T14:41:02.426Z,27.10
2022-11-28T14:46:34.910Z,23.73
2022-11-28T14:52:15.801Z,24.58
2022-11-28T14:57:18.203Z,27.08
2022-11-28T15:02:46.285Z,26.15
2022-11-28T15:07:55.619Z,28.65
2022-11-28T15:13:04.431Z,27.38
2022-11-28T15:18:03.650Z,26.48
2022-11-28T15:22:57.210Z,26.65
2022-11-28T15:27:55.767Z,24.73
2022-11-28T15:32:52.007Z,26.00
2022-11-28T15:37:50.947Z,24.45
2022-11-28T15:42:45.228Z,24.10
2022-11-28T15:47:39.772Z,25.05
2022-11-28T15:52:36.373Z,26.80
2022-11-28T15:57:33.771Z,30.30
2022-11-28T16:02:40.534Z,25.15
2022-11-28T16:07:42.925Z,29.35
2022-11-28T16:12:36.511Z,31.67
2022-11-28T16:17:35.756Z,34.13
2022-11-28T16:22:35.377Z,34.13
2022-11-28T16:27:36.207Z,28.73
2022-11-28T16:32:44.015Z,29.67
2022-11-28T16:37:39.410Z,33.03
2022-11-28T16:42:41.709Z,38.93
2022-11-28T16:47:37.240Z,45.67
2022-11-28T16:52:57.934Z,32.20
2022-11-28T16:58:03.876Z,29.10
2022-11-28T17:02:58.789Z,34.87
2022-11-28T17:07:56.332Z,30.47
2022-11-28T17:12:57.876Z,31.67
2022-11-28T17:17:52.960Z,28.60
2022-11-28T17:22:56.495Z,27.40
2022-11-28T17:28:00.763Z,26.80
2022-11-28T17:32:55.421Z,31.63
2022-11-28T17:37:48.905Z,35.93
2022-11-28T17:42:44.423Z,36.00
2022-11-28T17:47:38.133Z,33.43
2022-11-28T17:52:33.749Z,32.87
2022-11-28T17:57:27.168Z,32.50
2022-11-28T18:02:20.525Z,32.77
2022-11-28T18:07:16.306Z,28.77
2022-11-28T18:12:11.229Z,29.50
2022-11-28T18:17:04.604Z,30.47
2022-11-28T18:21:57.884Z,35.97
2022-11-28T18:26:51.497Z,34.47
2022-11-28T18:31:47.172Z,32.03
2022-11-28T18:36:41.756Z,33.13
2022-11-28T18:41:36.274Z,29.83
2022-11-28T18:46:32.449Z,29.47
2022-11-28T18:51:31.903Z,27.83
2022-11-28T18:56:26.002Z,29.30
2022-11-28T19:01:22.282Z,32.50
2022-11-28T19:06:15.801Z,31.60
2022-11-28T19:11:15.090Z,29.23
2022-11-28T19:16:14.566Z,28.97
2022-11-28T19:21:08.683Z,32.90
2022-11-28T19:26:03.196Z,32.20
2022-11-28T19:31:00.664Z,33.80
2022-11-28T19:35:57.221Z,32.37
2022-11-28T19:40:52.752Z,32.03
2022-11-28T19:45:54.476Z,33.97
2022-11-28T19:50:51.102Z,30.10
2022-11-28T19:55:47.900Z,30.43
2022-11-28T20:00:43.800Z,30.27
2022-11-28T20:05:40.738Z,29.33
2022-11-28T20:10:39.001Z,32.47
2022-11-28T20:15:37.491Z,31.47
2022-11-28T20:20:32.249Z,31.87
2022-11-28T20:25:25.936Z,29.23
2022-11-28T20:30:21.227Z,29.60
2022-11-28T20:35:16.344Z,29.67
2022-11-28T20:40:13.696Z,34.00
2022-11-28T20:45:08.425Z,29.23
2022-11-28T20:50:03.527Z,32.50
2022-11-28T20:54:58.150Z,28.87
2022-11-28T20:59:55.400Z,31.23
2022-11-28T21:04:51.812Z,34.77
2022-11-28T21:10:03.985Z,30.27
2022-11-28T21:15:00.826Z,28.07
2022-11-28T21:20:00.477Z,30.63
2022-11-28T21:24:58.805Z,29.90
2022-11-28T21:29:55.706Z,40.27
2022-11-28T21:34:51.348Z,33.43
2022-11-28T21:46:23.726Z,33.40
2022-11-28T21:51:18.480Z,28.47
2022-11-28T21:56:13.046Z,25.47
2022-11-28T22:01:08.484Z,24.53
2022-11-28T22:06:09.530Z,22.43
2022-11-28T22:11:04.992Z,23.33
2022-11-28T22:15:58.449Z,23.90
2022-11-28T22:20:53.190Z,21.77
2022-11-28T22:25:53.394Z,23.40
2022-11-28T22:30:47.208Z,22.45
2022-11-28T22:35:40.655Z,19.97
2022-11-28T22:40:34.038Z,23.53
2022-11-28T22:45:28.690Z,23.83
2022-11-28T22:50:25.130Z,25.13
2022-11-28T22:55:19.072Z,21.10
2022-11-28T23:00:13.731Z,22.67
2022-11-28T23:05:09.258Z,24.47
2022-11-28T23:10:02.993Z,20.17
2022-11-28T23:14:56.299Z,23.90
2022-11-28T23:19:50.486Z,22.33
2022-11-28T23:24:47.619Z,22.20
2022-11-28T23:29:41.132Z,23.23
2022-11-28T23:34:36.968Z,23.10
2022-11-28T23:39:30.326Z,23.67
2022-11-28T23:44:32.320Z,20.73
2022-11-28T23:49:25.542Z,21.23
2022-11-28T23:54:19.060Z,20.73
2022-11-28T23:59:16.454Z,18.60
